^^
Station Historical Data
Daily Summary for July 24, 2017 Units:  English    Metric   Both
« Previous Day
Next Day »
Daily Weekly Monthly Yearly Custom
  High: Low: Average:
Temperature: 69.6 °F 59.3 °F 64.5 °F
Dew Point: 65.9 °F 56.4 °F 61.2 °F
Humidity: 96% 77% 89%
Wind Speed: 5.0mph 0.0mph 1mph
Wind Gust: 10.0mph - -
Wind- - West
Pressure: 29.97 in 29.77 in -
Precipitation: 0.77 in    
Historical Graphs
 
 
Tabular Data for July 24, 2017
Time Temperature Dew Point Pressure Wind Wind Speed Wind Gust Humidity Rainfall Rate (Hourly) Conditions
00:00 69.6 °F 65.9 °F 29.87 in Calm   5.0 mph 88% 0.00 in RA
00:15 69.2 °F 65.8 °F 29.87 in NNW 1.0 mph 4.0 mph 89% 0.00 in -RA
00:30 68.6 °F 65.2 °F 29.86 in Calm   3.0 mph 89% 0.00 in -RA
00:45 68.1 °F 65.1 °F 29.85 in NNW 1.0 mph 4.0 mph 90% 0.00 in -RA
02:15 67.9 °F 65.5 °F 29.84 in WNW 1.0 mph 4.0 mph 92% 0.00 in -RA
02:30 68.1 °F 65.7 °F 29.83 in Calm   7.0 mph 92% 0.00 in -RA
02:45 68.2 °F 65.5 °F 29.82 in WNW 1.0 mph 6.0 mph 91% 0.00 in -RA
03:00 68.3 °F 65.6 °F 29.82 in WNW 1.0 mph 4.0 mph 91% 0.00 in -RA
03:15 68.4 °F 65.7 °F 29.82 in Calm   6.0 mph 91% 0.00 in BKN
03:30 68.4 °F 65.4 °F 29.81 in Calm   7.0 mph 90% 0.00 in BKN
03:45 68.5 °F 65.4 °F 29.81 in Calm   5.0 mph 90% 0.00 in BKN
04:00 68.5 °F 65.4 °F 29.80 in SW 1.0 mph 4.0 mph 90% 0.00 in BKN
04:15 68.5 °F 65.4 °F 29.80 in WNW 2.0 mph 6.0 mph 90% 0.00 in BKN
04:30 68.5 °F 65.4 °F 29.80 in Calm   9.0 mph 90% 0.00 in BKN
04:45 68.0 °F 65.3 °F 29.79 in NNE 1.0 mph 5.0 mph 91% 0.01 in BKN
05:00 67.6 °F 65.2 °F 29.79 in Calm   5.0 mph 92% 0.01 in RA
05:15 67.2 °F 65.1 °F 29.78 in WNW 1.0 mph 7.0 mph 93% 0.01 in RA
05:30 66.9 °F 64.8 °F 29.78 in WSW 2.0 mph 10.0 mph 93% 0.03 in RA
05:45 66.5 °F 64.8 °F 29.78 in WNW 2.0 mph 8.0 mph 94% 0.03 in RA
06:00 66.3 °F 64.8 °F 29.78 in North 1.0 mph 5.0 mph 95% 0.03 in RA
06:15 66.1 °F 64.6 °F 29.78 in Calm   8.0 mph 95% 0.03 in -RA
06:30 65.8 °F 64.3 °F 29.77 in NNE 2.0 mph 6.0 mph 95% 0.15 in -RA
06:45 65.6 °F 64.1 °F 29.77 in North 2.0 mph 5.0 mph 95% 0.01 in -RA
07:00 65.3 °F 63.8 °F 29.77 in WNW 1.0 mph 5.0 mph 95% 0.01 in -RA
07:15 64.9 °F 63.4 °F 29.77 in WNW 2.0 mph 7.0 mph 95% 0.00 in -RA
07:30 64.6 °F 63.1 °F 29.79 in Calm   6.0 mph 95% 0.01 in -RA
07:45 64.6 °F 63.4 °F 29.78 in Calm   3.0 mph 96% 0.03 in -RA
08:00 64.2 °F 62.8 °F 29.78 in North 1.0 mph 5.0 mph 95% 0.01 in -RA
08:15 63.8 °F 62.6 °F 29.78 in Calm   5.0 mph 96% 0.01 in -RA
08:30 63.3 °F 61.8 °F 29.78 in NNW 1.0 mph 5.0 mph 95% 0.00 in -RA
08:45 62.9 °F 61.8 °F 29.78 in NW 1.0 mph 6.0 mph 96% 0.01 in -RA
09:00 62.7 °F 61.5 °F 29.79 in Calm   6.0 mph 96% 0.01 in -RA
09:15 62.5 °F 61.3 °F 29.77 in NW 2.0 mph 5.0 mph 96% 0.01 in -RA
09:30 62.4 °F 61.2 °F 29.78 in Calm   9.0 mph 96% 0.02 in -RA
09:45 62.1 °F 60.9 °F 29.79 in WNW 1.0 mph 7.0 mph 96% 0.00 in -RA
10:00 61.9 °F 60.7 °F 29.79 in WNW 1.0 mph 5.0 mph 96% 0.01 in -RA
10:15 61.7 °F 60.5 °F 29.81 in NNW 2.0 mph 7.0 mph 96% 0.06 in -RA
10:30 61.5 °F 60.4 °F 29.81 in North 5.0 mph 7.0 mph 96% 0.09 in -RA
10:45 61.1 °F 60.0 °F 29.80 in NNW 3.0 mph 8.0 mph 96% 0.04 in -RA
11:00 60.7 °F 59.6 °F 29.81 in NNW 2.0 mph 9.0 mph 96% 0.01 in -RA
11:15 60.3 °F 59.2 °F 29.81 in WNW 3.0 mph 7.0 mph 96% 0.03 in -RA
11:30 59.6 °F 58.5 °F 29.81 in NNW 1.0 mph 9.0 mph 96% 0.03 in -RA
11:45 59.3 °F 58.2 °F 29.81 in NW 2.0 mph 8.0 mph 96% 0.06 in -RA
12:00 59.5 °F 58.3 °F 29.81 in NW 3.0 mph 7.0 mph 96% 0.00 in -RA
12:15 60.2 °F 59.1 °F 29.82 in NW 2.0 mph 8.0 mph 96% 0.00 in OVC
12:30 60.8 °F 59.4 °F 29.83 in NW 1.0 mph 7.0 mph 95% 0.00 in OVC
12:45 60.6 °F 58.9 °F 29.84 in NW 3.0 mph 7.0 mph 94% 0.00 in OVC
13:00 60.3 °F 58.6 °F 29.84 in NW 1.0 mph 8.0 mph 94% 0.01 in RA
13:15 60.1 °F 58.4 °F 29.85 in NW 1.0 mph 8.0 mph 94% 0.00 in BKN
13:30 60.8 °F 59.0 °F 29.85 in Calm   8.0 mph 94% 0.00 in BKN
13:45 61.4 °F 59.1 °F 29.84 in NNW 2.0 mph 9.0 mph 92% 0.00 in BKN
14:00 62.9 °F 60.2 °F 29.84 in NW 1.0 mph 6.0 mph 91% 0.00 in BKN
14:15 63.1 °F 59.4 °F 29.85 in NW 1.0 mph 9.0 mph 88% 0.00 in BKN
14:30 63.9 °F 60.0 °F 29.85 in NNW 1.0 mph 10.0 mph 87% 0.00 in BKN
14:45 65.6 °F 61.0 °F 29.84 in NW 1.0 mph 6.0 mph 85% 0.00 in BKN
15:00 65.8 °F 60.2 °F 29.84 in North 2.0 mph 7.0 mph 82% 0.00 in BKN
15:15 66.3 °F 60.6 °F 29.85 in NNW 2.0 mph 8.0 mph 82% 0.00 in BKN
15:30 66.4 °F 60.7 °F 29.85 in Calm   8.0 mph 82% 0.00 in BKN
15:45 66.7 °F 60.4 °F 29.86 in NNW 2.0 mph 5.0 mph 80% 0.00 in BKN
16:15 67.2 °F 61.2 °F 29.86 in NW 1.0 mph 8.0 mph 81% 0.00 in BKN
16:30 67.3 °F 60.6 °F 29.86 in NW 2.0 mph 7.0 mph 79% 0.00 in BKN
16:45 68.1 °F 60.6 °F 29.85 in NW 2.0 mph 6.0 mph 77% 0.00 in BKN
17:00 68.1 °F 61.0 °F 29.86 in NW 2.0 mph 5.0 mph 78% 0.00 in BKN
17:15 68.0 °F 60.9 °F 29.85 in NNW 3.0 mph 6.0 mph 78% 0.00 in BKN
17:30 68.6 °F 61.1 °F 29.86 in NW 2.0 mph 5.0 mph 77% 0.00 in BKN
17:45 68.9 °F 61.4 °F 29.86 in NW 1.0 mph 5.0 mph 77% 0.00 in BKN
18:00 68.6 °F 61.1 °F 29.87 in Calm   4.0 mph 77% 0.00 in BKN
18:15 68.1 °F 60.6 °F 29.88 in NNE 2.0 mph 5.0 mph 77% 0.00 in BKN
18:30 67.7 °F 60.6 °F 29.88 in Calm   3.0 mph 78% 0.00 in BKN
18:45 67.1 °F 61.1 °F 29.88 in Calm   3.0 mph 81% 0.00 in BKN
19:00 66.5 °F 60.4 °F 29.88 in Calm   2.0 mph 81% 0.00 in BKN
19:15 66.0 °F 60.3 °F 29.89 in Calm   3.0 mph 82% 0.00 in BKN
19:30 65.5 °F 60.2 °F 29.90 in ESE 1.0 mph 3.0 mph 83% 0.00 in BKN
19:45 65.0 °F 59.7 °F 29.89 in Calm   6.0 mph 83% 0.00 in BKN
20:00 64.6 °F 59.3 °F 29.90 in Calm   4.0 mph 83% 0.00 in BKN
20:15 64.1 °F 59.2 °F 29.89 in Calm   3.0 mph 84% 0.00 in BKN
20:30 63.4 °F 58.5 °F 29.88 in South 1.0 mph 4.0 mph 84% 0.00 in BKN
20:45 62.8 °F 58.2 °F 29.89 in West 1.0 mph 3.0 mph 85% 0.00 in BKN
21:00 62.4 °F 57.9 °F 29.90 in Calm   4.0 mph 85% 0.00 in BKN
21:15 62.0 °F 57.4 °F 29.91 in Calm   4.0 mph 85% 0.00 in BKN
21:30 61.4 °F 57.2 °F 29.92 in Calm   4.0 mph 86% 0.00 in BKN
21:45 61.1 °F 56.9 °F 29.91 in West 1.0 mph 6.0 mph 86% 0.00 in BKN
22:00 60.8 °F 56.9 °F 29.93 in Calm   5.0 mph 87% 0.00 in BKN
22:15 60.6 °F 57.0 °F 29.93 in Calm   2.0 mph 88% 0.00 in SCT
22:30 60.4 °F 56.8 °F 29.93 in Calm   3.0 mph 88% 0.00 in SCT
22:45 60.3 °F 56.7 °F 29.93 in Calm   4.0 mph 88% 0.00 in SCT
23:00 60.0 °F 56.4 °F 29.96 in Calm   3.0 mph 88% 0.00 in SCT
23:15 59.7 °F 56.5 °F 29.95 in Calm   1.0 mph 89% 0.00 in FEW
23:30 59.6 °F 56.7 °F 29.97 in Calm     90% 0.00 in FEW
23:45 59.6 °F 56.4 °F 29.97 in Calm     89% 0.00 in FEW
TarryTown NY Weather
Compliments of Weather Underground - 1.5 mb